Bc Singapore — V2ET7 — position and weather

sailwx.info

Track history (hours):
 
Tides and Currents Weather Stations Pressure Air Temp Water Temp Dewpoint Dewpoint Depression Visibility Wind Speed Wind Dir Waves Ship Positions

Bc Singapore

Last reported at 2018-Feb-10 21:44 UTC. Time now 2018-Feb-22 03:15 UTC.
Position N 14°19' W 061°13'.
Warning: this ship's position is 11 days out of date.

Length 148 m; draft 7.6 m.

Type: Ship (hazmat cat C). MMSI: 305548000.

Date/timePositionNaut miles runAvg speedWind from/ knotsBaromVisibWave heightAir tempDewpointWater temp
2018-Feb-10 21:44N 14°19' W 061°13'311.4
2018-Feb-10 21:28N 14°22' W 061°12'1211.6
2018-Feb-10 20:28N 14°33' W 061°08'510.4
2018-Feb-10 20:00N 14°35' W 061°04'1 1.5
2018-Feb-10 19:17N 14°36' W 061°03'0 0.0
2018-Feb-10 18:56N 14°36' W 061°03'0 0.0
2018-Feb-10 18:29N 14°36' W 061°03'0 0.0
2018-Feb-10 17:50N 14°36' W 061°03'0 0.0
2018-Feb-10 17:26N 14°36' W 061°03'0 0.0
2018-Feb-10 16:59N 14°36' W 061°03'0 0.0
2018-Feb-10 13:58N 14°36' W 061°03'1 1.8
2018-Feb-10 13:27N 14°35' W 061°04'5 4.0
2018-Feb-10 12:15N 14°35' W 061°09'610.4
2018-Feb-10 11:41N 14°35' W 061°15'210.5
2018-Feb-10 11:29N 14°36' W 061°17'2 4.2
2018-Feb-10 10:58N 14°36' W 061°19'511.3
2018-Feb-10 10:29N 14°37' W 061°14'5414.1
2018-Feb-10 06:39N 15°29' W 061°31'3016.1
2018-Feb-10 04:46N 15°59' W 061°27'416.4
2018-Feb-10 04:30N 16°03' W 061°28'714.8
2018-Feb-10 04:00N 16°10' W 061°31'4 7.5
2018-Feb-10 03:27N 16°14' W 061°33'0 0.0
2018-Feb-09 23:50N 16°14' W 061°33'5 0.5
2018-Feb-09 12:30N 16°09' W 061°30'10813.5
2018-Feb-09 04:31N 14°34' W 060°38'  
Track history (hours):
 
Tides and Currents Weather Stations Pressure Air Temp Water Temp Dewpoint Dewpoint Depression Visibility Wind Speed Wind Dir Waves Ship Positions

Bc Singapore

Last reported at 2018-Feb-10 21:44 UTC. Time now 2018-Feb-22 03:15 UTC.
Position N 14°19' W 061°13'.
Warning: this ship's position is 11 days out of date.

Length 148 m; draft 7.6 m.

Type: Ship (hazmat cat C). MMSI: 305548000.

Date/timePositionNaut miles runAvg speedWind from/ knotsBaromVisibWave heightAir tempDewpointWater temp
2018-Feb-10 21:44N 14°19' W 061°13'311.4
2018-Feb-10 21:28N 14°22' W 061°12'1211.6
2018-Feb-10 20:28N 14°33' W 061°08'510.4
2018-Feb-10 20:00N 14°35' W 061°04'1 1.5
2018-Feb-10 19:17N 14°36' W 061°03'0 0.0
2018-Feb-10 18:56N 14°36' W 061°03'0 0.0
2018-Feb-10 18:29N 14°36' W 061°03'0 0.0
2018-Feb-10 17:50N 14°36' W 061°03'0 0.0
2018-Feb-10 17:26N 14°36' W 061°03'0 0.0
2018-Feb-10 16:59N 14°36' W 061°03'0 0.0
2018-Feb-10 13:58N 14°36' W 061°03'1 1.8
2018-Feb-10 13:27N 14°35' W 061°04'5 4.0
2018-Feb-10 12:15N 14°35' W 061°09'610.4
2018-Feb-10 11:41N 14°35' W 061°15'210.5
2018-Feb-10 11:29N 14°36' W 061°17'2 4.2
2018-Feb-10 10:58N 14°36' W 061°19'511.3
2018-Feb-10 10:29N 14°37' W 061°14'5414.1
2018-Feb-10 06:39N 15°29' W 061°31'3016.1
2018-Feb-10 04:46N 15°59' W 061°27'416.4
2018-Feb-10 04:30N 16°03' W 061°28'714.8
2018-Feb-10 04:00N 16°10' W 061°31'4 7.5
2018-Feb-10 03:27N 16°14' W 061°33'0 0.0
2018-Feb-09 23:50N 16°14' W 061°33'5 0.5
2018-Feb-09 12:30N 16°09' W 061°30'10813.5
2018-Feb-09 04:31N 14°34' W 060°38'  

Dump ship's entire track history